Time;durP1;ratioP1;P1;durP2;ratioP2;P2;SDS_P1;SDS_P2;PMS_P1;PMS_P2;Temp;Humidity;BMP_temperature;BMP_pressure;BME280_temperature;BME280_humidity;BME280_pressure;Samples;Min_cycle;Max_cycle;Signal;HPM_P1;HPM_P2
2022/03/03 00:01:54;;;;;;;30.23;18.98;;;-0.40;72.70;;;;;;5035246;28;20226;-74
2022/03/03 00:04:21;;;;;;;29.83;18.35;;;-0.40;73.40;;;;;;5035394;28;20298;-74
2022/03/03 00:06:48;;;;;;;35.92;17.90;;;-0.40;73.20;;;;;;5035747;28;20208;-74
2022/03/03 00:09:15;;;;;;;31.33;18.70;;;-0.50;71.60;;;;;;5034997;28;20294;-73
2022/03/03 00:11:42;;;;;;;29.20;18.77;;;-0.60;71.30;;;;;;5034614;28;20237;-74
2022/03/03 00:14:09;;;;;;;33.30;19.70;;;-0.60;72.50;;;;;;5035398;28;20265;-74
2022/03/03 00:16:37;;;;;;;32.67;19.10;;;-0.60;72.50;;;;;;5035605;28;20235;-74
2022/03/03 00:19:04;;;;;;;24.73;17.25;;;-0.70;72.40;;;;;;5035337;28;20231;-74
2022/03/03 00:21:31;;;;;;;30.17;18.80;;;-0.70;72.80;;;;;;5035528;28;20227;-75
2022/03/03 00:23:58;;;;;;;27.50;17.85;;;-0.80;73.70;;;;;;5036822;28;20690;-74
2022/03/03 00:26:25;;;;;;;27.30;18.17;;;-0.80;74.00;;;;;;5035383;28;20235;-74
2022/03/03 00:28:52;;;;;;;30.58;19.00;;;-0.80;74.80;;;;;;5039574;28;20231;-77
2022/03/03 00:31:19;;;;;;;37.60;18.90;;;-0.80;75.20;;;;;;5037627;28;20228;-77
2022/03/03 00:33:47;;;;;;;34.15;19.40;;;-0.80;75.00;;;;;;5036814;28;20231;-75
2022/03/03 00:36:14;;;;;;;34.67;19.65;;;-0.90;75.60;;;;;;5035931;28;20217;-76
2022/03/03 00:38:40;;;;;;;31.80;18.60;;;-0.80;75.50;;;;;;5036229;28;20203;-77
2022/03/03 00:41:07;;;;;;;31.85;19.45;;;-0.80;74.90;;;;;;5035046;28;20241;-75
2022/03/03 00:43:34;;;;;;;31.73;20.15;;;-0.80;74.70;;;;;;5035403;28;20289;-74
2022/03/03 00:46:01;;;;;;;26.65;17.23;;;-0.80;74.80;;;;;;5036475;28;20567;-75
2022/03/03 00:48:28;;;;;;;39.53;17.85;;;-0.90;75.00;;;;;;5035053;28;20256;-74
2022/03/03 00:50:56;;;;;;;30.02;18.17;;;-0.90;75.50;;;;;;5035549;28;20235;-76
2022/03/03 00:53:23;;;;;;;29.40;18.77;;;-0.90;76.20;;;;;;5041445;28;20211;-76
2022/03/03 00:55:50;;;;;;;33.42;19.70;;;-0.90;76.40;;;;;;5038768;28;20219;-75
2022/03/03 00:58:17;;;;;;;32.70;19.52;;;-0.90;76.40;;;;;;5034407;28;20203;-75
2022/03/03 01:00:44;;;;;;;36.38;19.70;;;-0.90;76.50;;;;;;5034171;28;20234;-74
2022/03/03 01:03:11;;;;;;;32.63;18.38;;;-0.90;76.80;;;;;;5034339;28;20310;-73
2022/03/03 01:05:38;;;;;;;30.25;19.00;;;-0.80;77.90;;;;;;5034201;28;20243;-74
2022/03/03 01:08:10;;;;;;;27.02;17.63;;;-0.90;76.90;;;;;;5034035;28;20703;-75
2022/03/03 01:10:37;;;;;;;35.72;20.85;;;-0.90;77.70;;;;;;5034500;28;20231;-74
2022/03/03 01:13:04;;;;;;;27.00;17.65;;;-0.90;77.40;;;;;;5034501;28;20397;-76
2022/03/03 01:15:31;;;;;;;31.05;19.10;;;-0.90;77.60;;;;;;5034603;28;20210;-74
2022/03/03 01:17:58;;;;;;;32.55;18.30;;;-1.00;77.60;;;;;;5034641;28;20207;-75
2022/03/03 01:20:27;;;;;;;27.67;17.20;;;-1.00;78.30;;;;;;5035029;28;20231;-74
2022/03/03 01:22:54;;;;;;;30.10;18.85;;;-1.00;78.10;;;;;;5034043;28;20200;-76
2022/03/03 01:25:23;;;;;;;30.75;18.50;;;-1.00;78.00;;;;;;5034785;28;20235;-75
2022/03/03 01:27:50;;;;;;;29.63;18.98;;;-1.00;78.50;;;;;;5034135;28;20254;-75
2022/03/03 01:30:17;;;;;;;34.53;18.33;;;-1.00;78.50;;;;;;5034666;28;20231;-75
2022/03/03 01:32:44;;;;;;;29.48;18.75;;;-1.00;78.50;;;;;;5035905;28;20294;-76
2022/03/03 01:35:11;;;;;;;31.45;20.02;;;-1.00;78.40;;;;;;5036708;28;20211;-75
2022/03/03 01:37:38;;;;;;;27.45;17.83;;;-1.00;78.80;;;;;;5037095;28;20199;-76
2022/03/03 01:40:07;;;;;;;29.15;19.52;;;-1.10;78.50;;;;;;5038582;28;20258;-74
2022/03/03 01:42:36;;;;;;;30.38;19.00;;;-1.10;79.30;;;;;;5040850;28;20254;-73
2022/03/03 01:45:03;;;;;;;28.35;18.60;;;-1.10;80.90;;;;;;5052442;28;20283;-75
2022/03/03 01:47:30;;;;;;;35.05;20.45;;;-1.20;80.30;;;;;;5050400;28;20219;-74
2022/03/03 01:49:59;;;;;;;36.45;19.00;;;-1.20;80.30;;;;;;5044070;28;20255;-73
2022/03/03 01:52:26;;;;;;;30.45;20.35;;;-1.20;80.50;;;;;;5044999;28;20223;-74
2022/03/03 01:54:53;;;;;;;36.13;20.40;;;-1.30;81.20;;;;;;5040221;28;20242;-75
2022/03/03 01:57:22;;;;;;;32.95;19.45;;;-1.30;81.60;;;;;;5033609;28;20275;-75
2022/03/03 01:59:50;;;;;;;29.92;20.33;;;-1.30;81.80;;;;;;5033437;28;20301;-74
2022/03/03 02:02:18;;;;;;;30.20;19.55;;;-1.30;82.30;;;;;;5033505;28;20234;-74
2022/03/03 02:04:44;;;;;;;30.48;19.98;;;-1.30;82.30;;;;;;5034182;28;20225;-76
2022/03/03 02:07:11;;;;;;;29.38;18.92;;;-1.40;82.70;;;;;;5034595;28;20282;-75
2022/03/03 02:09:40;;;;;;;34.38;20.38;;;-1.40;82.80;;;;;;5032045;28;20290;-74
2022/03/03 02:12:08;;;;;;;30.48;19.05;;;-1.40;83.50;;;;;;5032356;28;20223;-74
2022/03/03 02:14:45;;;;;;;33.63;20.25;;;-1.40;84.20;;;;;;5032649;28;20299;-74
2022/03/03 02:17:14;;;;;;;36.75;18.77;;;-1.40;84.40;;;;;;5032527;28;20209;-74
2022/03/03 02:19:41;;;;;;;35.30;20.80;;;-1.40;84.30;;;;;;5032665;28;20685;-74
2022/03/03 02:22:10;;;;;;;28.33;19.30;;;-1.40;84.80;;;;;;5032599;28;20211;-74
2022/03/03 02:24:38;;;;;;;29.90;18.40;;;-1.30;84.40;;;;;;5032641;28;20269;-74
2022/03/03 02:27:05;;;;;;;30.50;19.50;;;-1.40;84.10;;;;;;5032813;28;20242;-73
2022/03/03 02:29:33;;;;;;;32.53;19.83;;;-1.40;84.20;;;;;;5032830;28;20618;-74
2022/03/03 02:32:01;;;;;;;34.70;19.27;;;-1.40;84.20;;;;;;5032356;28;20219;-76
2022/03/03 02:34:28;;;;;;;29.80;18.13;;;-1.40;84.10;;;;;;5033585;28;20233;-73
2022/03/03 02:36:55;;;;;;;32.28;20.73;;;-1.40;83.50;;;;;;5033206;28;20241;-74
2022/03/03 02:39:23;;;;;;;29.70;18.88;;;-1.40;83.10;;;;;;5032242;28;20679;-74
2022/03/03 02:41:50;;;;;;;30.08;17.77;;;-1.40;82.60;;;;;;5031975;28;20217;-74
2022/03/03 02:44:17;;;;;;;28.40;18.65;;;-1.40;82.70;;;;;;5031850;28;20203;-74
2022/03/03 02:46:44;;;;;;;29.58;18.25;;;-1.40;82.70;;;;;;5032294;28;20302;-73
2022/03/03 02:49:11;;;;;;;28.85;18.48;;;-1.40;82.60;;;;;;5032571;28;20206;-74
2022/03/03 02:51:39;;;;;;;29.00;17.60;;;-1.40;83.10;;;;;;5032305;28;20295;-74
2022/03/03 02:54:06;;;;;;;27.45;17.88;;;-1.50;82.30;;;;;;5032680;28;20243;-76
2022/03/03 02:57:53;;;;;;;29.27;18.33;;;-1.50;82.20;;;;;;5033133;28;20275;-76
2022/03/03 02:59:21;;;;;;;27.92;18.13;;;-1.50;83.00;;;;;;5032565;28;20214;-75
2022/03/03 03:01:48;;;;;;;31.60;18.98;;;-1.50;83.50;;;;;;5032258;28;20834;-74
2022/03/03 03:04:15;;;;;;;31.42;17.88;;;-1.50;83.00;;;;;;5033398;28;20203;-76
2022/03/03 03:06:42;;;;;;;29.42;17.50;;;-1.50;82.80;;;;;;5032416;28;20759;-75
2022/03/03 03:09:09;;;;;;;29.65;19.00;;;-1.50;83.20;;;;;;5032995;28;20213;-76
2022/03/03 03:11:37;;;;;;;34.05;18.52;;;-1.60;82.30;;;;;;5032595;28;20227;-75
2022/03/03 03:14:04;;;;;;;40.72;19.38;;;-1.60;82.80;;;;;;5044158;28;20210;-74
2022/03/03 03:16:31;;;;;;;29.15;18.27;;;-1.60;83.00;;;;;;5052614;28;20214;-74
2022/03/03 03:18:58;;;;;;;29.70;17.73;;;-1.60;83.50;;;;;;5045379;28;20231;-75
2022/03/03 03:21:25;;;;;;;29.48;18.52;;;-1.60;83.80;;;;;;5035548;28;20235;-76
2022/03/03 03:23:52;;;;;;;29.08;17.38;;;-1.60;83.70;;;;;;5037378;28;20234;-76
2022/03/03 03:26:19;;;;;;;28.88;17.90;;;-1.60;83.80;;;;;;5036740;28;20639;-76
2022/03/03 03:28:47;;;;;;;29.27;17.80;;;-1.60;83.90;;;;;;5036308;28;20290;-76
2022/03/03 03:31:14;;;;;;;33.20;19.10;;;-1.70;83.80;;;;;;5037580;28;20239;-75
2022/03/03 03:33:41;;;;;;;28.73;17.05;;;-1.60;84.00;;;;;;5037475;28;20208;-75
2022/03/03 03:36:08;;;;;;;32.03;17.67;;;-1.70;83.30;;;;;;5037645;28;20290;-75
2022/03/03 03:38:35;;;;;;;27.05;16.65;;;-1.80;83.40;;;;;;5040818;28;20217;-75
2022/03/03 03:41:02;;;;;;;26.00;16.95;;;-1.80;83.80;;;;;;5052632;22;20321;-72
2022/03/03 03:43:29;;;;;;;28.92;16.48;;;-1.80;84.10;;;;;;5037256;28;20227;-72
2022/03/03 03:45:57;;;;;;;31.50;18.05;;;-1.80;84.30;;;;;;5037326;28;20298;-72
2022/03/03 03:48:24;;;;;;;28.40;16.55;;;-1.80;83.90;;;;;;5037947;28;20203;-72
2022/03/03 03:50:52;;;;;;;29.90;17.42;;;-1.80;84.40;;;;;;5036983;28;20231;-72
2022/03/03 03:53:19;;;;;;;29.92;18.45;;;-1.80;84.90;;;;;;5037500;28;20303;-72
2022/03/03 03:55:46;;;;;;;28.77;17.77;;;-1.80;84.20;;;;;;5037087;28;20325;-73
2022/03/03 03:58:13;;;;;;;28.95;18.15;;;-1.80;83.90;;;;;;5036944;28;20208;-72
2022/03/03 04:00:40;;;;;;;24.58;16.30;;;-1.80;83.90;;;;;;5036761;28;20305;-74
2022/03/03 04:03:09;;;;;;;26.83;16.60;;;-1.80;84.30;;;;;;5036980;28;20266;-73
2022/03/03 04:05:36;;;;;;;29.75;17.80;;;-1.80;83.90;;;;;;5038344;28;20577;-74
2022/03/03 04:08:04;;;;;;;30.10;17.77;;;-1.80;83.90;;;;;;5037226;28;20670;-73
2022/03/03 04:10:31;;;;;;;28.40;17.48;;;-1.80;83.60;;;;;;5036480;28;20222;-73
2022/03/03 04:12:58;;;;;;;28.52;17.65;;;-1.90;83.60;;;;;;5037021;28;20274;-73
2022/03/03 04:15:25;;;;;;;27.13;17.58;;;-2.00;83.00;;;;;;5037199;28;20341;-73
2022/03/03 04:17:52;;;;;;;28.40;17.58;;;-2.10;83.60;;;;;;5036894;28;20294;-72
2022/03/03 04:20:22;;;;;;;34.15;17.88;;;-2.10;84.40;;;;;;5038734;28;20220;-75
2022/03/03 04:22:49;;;;;;;27.85;17.08;;;-2.10;84.50;;;;;;5041887;28;20207;-74
2022/03/03 04:25:16;;;;;;;31.70;18.27;;;-2.10;85.40;;;;;;5041841;28;20593;-74
2022/03/03 04:27:43;;;;;;;26.90;17.25;;;-2.10;85.60;;;;;;5045179;28;20226;-74
2022/03/03 04:30:12;;;;;;;32.20;17.73;;;-2.10;85.90;;;;;;5049562;28;20261;-74
2022/03/03 04:32:39;;;;;;;26.73;16.98;;;-2.10;86.30;;;;;;5052185;28;20321;-74
2022/03/03 04:35:08;;;;;;;32.05;18.88;;;-2.10;86.40;;;;;;5046267;28;20681;-74
2022/03/03 04:37:36;;;;;;;29.85;17.27;;;-2.00;86.60;;;;;;5048438;28;20218;-74
2022/03/03 04:40:04;;;;;;;25.45;16.90;;;-2.10;86.00;;;;;;5045926;28;20206;-76
2022/03/03 04:42:31;;;;;;;32.60;18.02;;;-2.00;86.20;;;;;;5042539;28;20277;-76
2022/03/03 04:44:58;;;;;;;26.58;16.10;;;-2.00;86.10;;;;;;5047154;28;20628;-73
2022/03/03 04:47:28;;;;;;;29.13;15.57;;;-2.10;85.50;;;;;;5042748;28;20250;-75
2022/03/03 04:49:55;;;;;;;27.83;16.85;;;-2.00;86.30;;;;;;5040753;28;20207;-75
2022/03/03 04:52:22;;;;;;;27.02;16.23;;;-2.00;86.80;;;;;;5037638;28;20242;-75
2022/03/03 04:54:50;;;;;;;28.80;16.00;;;-2.10;85.90;;;;;;5037711;28;20265;-76
2022/03/03 04:57:17;;;;;;;22.83;14.98;;;-2.20;85.60;;;;;;5038016;28;20214;-76
2022/03/03 04:59:44;;;;;;;31.98;15.70;;;-2.10;86.40;;;;;;5037601;28;20210;-76
2022/03/03 05:02:11;;;;;;;26.80;16.35;;;-2.10;86.40;;;;;;5036303;28;20242;-76
2022/03/03 05:04:38;;;;;;;22.67;14.45;;;-2.10;86.30;;;;;;5037599;28;20217;-74
2022/03/03 05:07:05;;;;;;;23.95;15.02;;;-2.10;86.20;;;;;;5035623;28;20234;-76
2022/03/03 05:09:32;;;;;;;30.83;18.00;;;-2.10;86.10;;;;;;5035196;28;20211;-74
2022/03/03 05:12:00;;;;;;;27.23;16.80;;;-2.20;85.40;;;;;;5035359;28;20230;-74
2022/03/03 05:14:27;;;;;;;30.90;17.70;;;-2.20;86.30;;;;;;5035452;28;20265;-74
2022/03/03 05:16:54;;;;;;;25.30;16.35;;;-2.20;86.70;;;;;;5035637;28;20218;-74
2022/03/03 05:19:21;;;;;;;28.50;16.75;;;-2.20;86.90;;;;;;5037595;28;20225;-74
2022/03/03 05:21:48;;;;;;;28.20;17.58;;;-2.10;87.60;;;;;;5044217;28;20223;-76
2022/03/03 05:24:15;;;;;;;27.27;15.50;;;-2.10;87.10;;;;;;5037504;28;20262;-74
2022/03/03 05:26:42;;;;;;;31.75;16.67;;;-2.20;87.40;;;;;;5035059;28;20260;-74
2022/03/03 05:29:10;;;;;;;27.48;15.43;;;-2.20;86.60;;;;;;5035264;28;20210;-76
2022/03/03 05:31:37;;;;;;;26.50;15.60;;;-2.20;86.50;;;;;;5034501;28;20314;-74
2022/03/03 05:34:04;;;;;;;29.25;16.90;;;-2.20;85.80;;;;;;5035236;28;20547;-74
2022/03/03 05:36:31;;;;;;;30.23;16.67;;;-2.20;85.70;;;;;;5034664;28;20215;-74
2022/03/03 05:38:59;;;;;;;28.58;16.17;;;-2.20;85.70;;;;;;5034857;28;20214;-74
2022/03/03 05:41:26;;;;;;;27.90;16.10;;;-2.30;85.10;;;;;;5034381;28;20259;-76
2022/03/03 05:43:53;;;;;;;24.88;15.23;;;-2.20;85.90;;;;;;5037284;28;20235;-74
2022/03/03 05:46:23;;;;;;;26.63;16.92;;;-2.20;86.50;;;;;;5046911;28;20211;-74
2022/03/03 05:48:50;;;;;;;31.17;17.40;;;-2.30;85.60;;;;;;5043385;28;20298;-75
2022/03/03 05:51:17;;;;;;;27.67;18.20;;;-2.30;86.20;;;;;;5035104;28;20311;-75
2022/03/03 05:53:44;;;;;;;26.60;16.67;;;-2.20;86.20;;;;;;5035995;28;20218;-75
2022/03/03 05:56:13;;;;;;;25.40;15.27;;;-2.20;85.40;;;;;;5035839;28;20257;-75
2022/03/03 05:58:43;;;;;;;27.00;17.50;;;-2.30;84.50;;;;;;5035662;28;20222;-73
2022/03/03 06:01:11;;;;;;;24.25;16.20;;;-2.30;84.60;;;;;;5036519;28;20737;-74
2022/03/03 06:03:40;;;;;;;30.13;16.27;;;-2.40;84.60;;;;;;5037871;28;20211;-75
2022/03/03 06:06:14;;;;;;;31.38;15.82;;;-2.40;84.80;;;;;;5038758;28;20266;-75
2022/03/03 06:08:49;;;;;;;24.92;16.60;;;-2.40;84.90;;;;;;5043821;28;20203;-73
2022/03/03 06:11:20;;;;;;;28.80;16.58;;;-2.50;85.60;;;;;;5044423;28;20269;-74
2022/03/03 06:13:49;;;;;;;26.60;16.27;;;-2.40;86.30;;;;;;5044709;28;20245;-73
2022/03/03 06:16:20;;;;;;;27.88;16.63;;;-2.40;86.00;;;;;;5051556;28;20270;-73
2022/03/03 06:18:50;;;;;;;30.20;16.50;;;-2.40;85.70;;;;;;5050489;28;20212;-74
2022/03/03 06:21:18;;;;;;;26.70;15.80;;;-2.60;83.90;;;;;;5049739;28;20223;-73
2022/03/03 06:23:45;;;;;;;26.23;17.30;;;-2.70;84.20;;;;;;5043274;28;20207;-73
2022/03/03 06:26:13;;;;;;;31.23;17.48;;;-2.70;85.30;;;;;;5037685;28;20202;-72
2022/03/03 06:28:40;;;;;;;31.58;17.40;;;-2.70;86.20;;;;;;5036481;28;20263;-73
2022/03/03 06:31:08;;;;;;;27.63;16.73;;;-2.70;87.10;;;;;;5044119;28;20686;-73
2022/03/03 06:33:36;;;;;;;30.35;18.77;;;-2.60;87.30;;;;;;5056096;28;20249;-73
2022/03/03 06:36:05;;;;;;;34.90;18.10;;;-2.60;87.90;;;;;;5058690;28;20202;-73
2022/03/03 06:38:32;;;;;;;30.88;17.23;;;-2.50;88.30;;;;;;5063653;28;20272;-74
2022/03/03 06:40:59;;;;;;;29.70;16.75;;;-2.40;88.50;;;;;;5065858;28;20287;-74
2022/03/03 06:43:29;;;;;;;31.25;17.30;;;-2.30;89.20;;;;;;5052257;28;20219;-75
2022/03/03 06:45:56;;;;;;;31.60;17.95;;;-2.20;88.60;;;;;;5051074;28;20275;-75
2022/03/03 06:48:24;;;;;;;26.95;17.45;;;-2.10;87.90;;;;;;5044988;28;20231;-74
2022/03/03 06:50:52;;;;;;;29.77;16.73;;;-1.90;87.80;;;;;;5044130;28;20648;-77
2022/03/03 06:53:27;;;;;;;29.45;15.82;;;-1.80;85.90;;;;;;5047759;28;20235;-74
2022/03/03 06:55:55;;;;;;;26.63;16.73;;;-1.80;84.10;;;;;;5054272;28;20204;-73
2022/03/03 06:58:26;;;;;;;30.13;15.65;;;-1.70;83.70;;;;;;5052573;28;20207;-72
2022/03/03 07:00:54;;;;;;;26.65;16.20;;;-1.50;82.00;;;;;;5045424;28;20286;-72
2022/03/03 07:03:22;;;;;;;25.30;15.40;;;-1.40;80.30;;;;;;5050335;28;20233;-73
2022/03/03 07:05:51;;;;;;;29.60;16.42;;;-1.40;79.90;;;;;;5072693;28;20199;-73
2022/03/03 07:08:19;;;;;;;23.80;14.93;;;-1.40;78.70;;;;;;5047618;28;20215;-73
2022/03/03 07:10:49;;;;;;;28.25;16.77;;;-1.30;78.20;;;;;;5054825;28;20216;-74
2022/03/03 07:13:17;;;;;;;26.35;16.08;;;-1.20;77.40;;;;;;5065522;28;20234;-73
2022/03/03 07:15:50;;;;;;;30.35;15.55;;;-1.10;76.20;;;;;;5072550;28;20225;-73
2022/03/03 07:18:19;;;;;;;25.75;14.80;;;-1.00;76.00;;;;;;5059111;28;20223;-74
2022/03/03 07:21:04;;;;;;;24.88;16.42;;;-0.80;74.50;;;;;;5056454;28;20566;-74
2022/03/03 07:23:36;;;;;;;27.02;16.60;;;-0.70;72.70;;;;;;5057551;28;20647;-75
2022/03/03 07:26:08;;;;;;;34.65;15.73;;;-0.70;71.50;;;;;;5038186;28;20200;-74
2022/03/03 07:28:35;;;;;;;33.05;15.38;;;-0.60;71.60;;;;;;5039760;28;20272;-74
2022/03/03 07:31:04;;;;;;;25.73;16.10;;;-0.50;71.20;;;;;;5047764;28;20233;-74
2022/03/03 07:33:42;;;;;;;26.00;15.63;;;-0.40;71.10;;;;;;5052484;28;20238;-74
2022/03/03 07:36:10;;;;;;;27.88;16.02;;;-0.30;70.10;;;;;;5023167;28;20206;-74
2022/03/03 07:38:39;;;;;;;27.67;15.32;;;-0.10;69.90;;;;;;5036153;28;20273;-75
2022/03/03 07:41:08;;;;;;;27.92;16.05;;;0.00;68.80;;;;;;5054291;28;20230;-75
2022/03/03 07:43:35;;;;;;;27.58;17.38;;;0.10;68.80;;;;;;5059439;28;20203;-74
2022/03/03 07:46:03;;;;;;;28.33;15.90;;;0.30;66.80;;;;;;5052936;28;20207;-74
2022/03/03 07:48:32;;;;;;;24.63;15.32;;;0.30;65.70;;;;;;5052669;28;20206;-73
2022/03/03 07:51:01;;;;;;;24.13;16.10;;;0.40;65.20;;;;;;5037042;28;20259;-73
2022/03/03 07:53:28;;;;;;;23.65;16.48;;;0.40;63.60;;;;;;5033060;28;20228;-73
2022/03/03 07:56:01;;;;;;;20.55;14.45;;;0.40;62.70;;;;;;5038286;28;20225;-75
2022/03/03 07:58:32;;;;;;;24.00;15.32;;;0.60;63.20;;;;;;5046502;28;20203;-76
2022/03/03 08:01:01;;;;;;;26.70;17.20;;;0.70;62.10;;;;;;5047340;28;20223;-73
2022/03/03 08:03:28;;;;;;;22.52;15.32;;;0.70;60.60;;;;;;5037757;28;20294;-76
2022/03/03 08:05:57;;;;;;;22.23;15.20;;;0.70;60.60;;;;;;5031192;28;20212;-74
2022/03/03 08:08:26;;;;;;;27.65;16.05;;;0.80;60.70;;;;;;5034277;28;20246;-74
2022/03/03 08:10:58;;;;;;;25.77;16.17;;;0.90;60.70;;;;;;5035575;28;20310;-73
2022/03/03 08:13:28;;;;;;;25.42;15.88;;;1.20;59.90;;;;;;5042335;28;20362;-74
2022/03/03 08:15:58;;;;;;;27.27;16.00;;;1.40;59.10;;;;;;5047710;28;20234;-74
2022/03/03 08:18:29;;;;;;;27.17;16.60;;;1.50;57.90;;;;;;5049569;28;20212;-74
2022/03/03 08:20:57;;;;;;;22.30;14.93;;;1.80;58.60;;;;;;5042356;28;20227;-72
2022/03/03 08:23:26;;;;;;;22.58;15.82;;;2.00;57.30;;;;;;5037534;28;20203;-72
2022/03/03 08:25:54;;;;;;;22.75;15.30;;;2.10;55.70;;;;;;5036752;28;20216;-72
2022/03/03 08:28:23;;;;;;;25.90;17.35;;;2.10;54.50;;;;;;5036952;28;20235;-71
2022/03/03 08:30:52;;;;;;;29.75;17.98;;;2.00;54.50;;;;;;5035471;28;20223;-72
2022/03/03 08:33:25;;;;;;;29.77;16.55;;;2.00;55.30;;;;;;5035631;28;20230;-72
2022/03/03 08:35:57;;;;;;;27.75;17.92;;;2.00;55.00;;;;;;5036245;28;20199;-72
2022/03/03 08:38:30;;;;;;;28.75;18.23;;;1.80;55.60;;;;;;5036880;28;20211;-72
2022/03/03 08:41:00;;;;;;;22.50;16.25;;;1.80;56.00;;;;;;5036319;28;20262;-74
2022/03/03 08:43:29;;;;;;;25.33;16.42;;;1.80;56.10;;;;;;5037467;28;20200;-74
2022/03/03 08:46:02;;;;;;;25.40;17.08;;;1.70;55.80;;;;;;5037597;28;20207;-74
2022/03/03 08:48:32;;;;;;;27.63;17.27;;;1.70;56.10;;;;;;5040334;28;20211;-75
2022/03/03 08:51:00;;;;;;;22.55;15.73;;;1.70;56.10;;;;;;5041495;28;20224;-75
2022/03/03 08:53:27;;;;;;;28.58;17.30;;;1.70;56.40;;;;;;5044984;28;20235;-75
2022/03/03 08:55:54;;;;;;;24.90;17.20;;;1.80;56.40;;;;;;5049278;28;20262;-75
2022/03/03 08:58:22;;;;;;;26.17;16.15;;;1.90;55.90;;;;;;5047640;28;20245;-74
2022/03/03 09:00:50;;;;;;;25.95;16.92;;;2.00;55.70;;;;;;5039792;28;20219;-75
2022/03/03 09:03:21;;;;;;;30.05;17.40;;;2.20;56.10;;;;;;5037988;28;20226;-76
2022/03/03 09:05:49;;;;;;;25.73;17.35;;;2.20;55.10;;;;;;5034806;28;20606;-75
2022/03/03 09:08:16;;;;;;;28.33;17.80;;;2.30;54.70;;;;;;5035463;28;20211;-75
2022/03/03 09:10:43;;;;;;;31.42;18.20;;;2.20;53.60;;;;;;5033854;28;20228;-74
2022/03/03 09:13:10;;;;;;;25.92;15.75;;;2.10;53.80;;;;;;5035181;28;20539;-75
2022/03/03 09:15:37;;;;;;;23.55;16.58;;;2.20;54.00;;;;;;5033267;28;20877;-74
2022/03/03 09:18:05;;;;;;;27.10;17.33;;;2.40;53.90;;;;;;5035072;28;20223;-75
2022/03/03 09:20:32;;;;;;;25.10;16.88;;;2.50;53.20;;;;;;5038712;28;20228;-75
2022/03/03 09:23:01;;;;;;;30.55;18.23;;;2.70;52.70;;;;;;5045804;28;20203;-75
2022/03/03 09:25:28;;;;;;;26.80;16.60;;;2.90;52.00;;;;;;5041273;28;20282;-74
2022/03/03 09:27:55;;;;;;;24.10;17.15;;;2.90;51.80;;;;;;5041784;28;20584;-73
2022/03/03 09:30:22;;;;;;;24.58;17.48;;;3.10;51.10;;;;;;5038435;28;20231;-75
2022/03/03 09:32:49;;;;;;;23.92;17.35;;;3.30;50.50;;;;;;5036584;28;20223;-75
2022/03/03 09:35:17;;;;;;;23.35;17.45;;;3.50;49.80;;;;;;5037307;28;20262;-75
2022/03/03 09:37:44;;;;;;;29.58;19.38;;;3.50;49.30;;;;;;5039068;28;20219;-75
2022/03/03 09:40:13;;;;;;;27.80;18.60;;;3.40;49.20;;;;;;5037336;28;20601;-74
2022/03/03 09:42:39;;;;;;;30.08;18.88;;;3.30;49.90;;;;;;5037752;28;20272;-75
2022/03/03 09:45:08;;;;;;;29.50;19.33;;;3.30;50.20;;;;;;5038292;28;20205;-75
2022/03/03 09:47:36;;;;;;;39.03;20.42;;;3.50;49.50;;;;;;5037476;28;20241;-74
2022/03/03 09:50:04;;;;;;;29.27;19.17;;;3.60;49.40;;;;;;5036964;28;20213;-74
2022/03/03 09:52:31;;;;;;;27.98;19.88;;;3.80;48.80;;;;;;5035537;28;20295;-75
2022/03/03 09:54:59;;;;;;;26.15;19.48;;;3.70;48.70;;;;;;5035885;28;20280;-74
2022/03/03 09:57:28;;;;;;;27.20;18.35;;;3.90;48.90;;;;;;5037147;28;20220;-74
2022/03/03 09:59:56;;;;;;;28.13;19.75;;;4.00;48.10;;;;;;5038265;28;20669;-75
2022/03/03 10:02:24;;;;;;;27.88;19.25;;;4.20;47.20;;;;;;5036806;28;20312;-74
2022/03/03 10:04:55;;;;;;;31.85;20.88;;;4.20;47.20;;;;;;5036821;28;20215;-73
2022/03/03 10:07:24;;;;;;;26.77;19.20;;;4.20;47.30;;;;;;5035867;28;20690;-72
2022/03/03 10:10:07;;;;;;;30.00;20.05;;;4.40;46.70;;;;;;5036930;28;20237;-73
2022/03/03 10:12:45;;;;;;;25.58;18.17;;;4.70;45.60;;;;;;5035309;28;20647;-73
2022/03/03 10:15:14;;;;;;;26.73;19.38;;;4.50;45.20;;;;;;5035338;28;20282;-74
2022/03/03 10:17:41;;;;;;;31.77;20.98;;;4.40;45.40;;;;;;5035237;28;20209;-75
2022/03/03 10:20:09;;;;;;;28.00;19.00;;;4.60;45.50;;;;;;5034989;28;20296;-73
2022/03/03 10:22:41;;;;;;;28.15;19.65;;;4.60;45.50;;;;;;5034657;28;20281;-74
2022/03/03 10:25:10;;;;;;;26.10;19.77;;;4.90;44.40;;;;;;5035000;28;20225;-74
2022/03/03 10:27:37;;;;;;;26.23;19.13;;;5.10;43.60;;;;;;5035517;28;20247;-73
2022/03/03 10:30:08;;;;;;;26.60;19.67;;;5.20;42.20;;;;;;5034387;28;20267;-73
2022/03/03 10:32:36;;;;;;;29.10;18.05;;;5.30;41.80;;;;;;5036196;28;20236;-74
2022/03/03 10:35:14;;;;;;;26.08;19.30;;;5.50;41.10;;;;;;5035994;28;20630;-75
2022/03/03 10:37:42;;;;;;;21.05;17.80;;;5.60;40.40;;;;;;5036063;28;20212;-73
2022/03/03 10:40:13;;;;;;;23.60;18.35;;;5.70;40.60;;;;;;5039171;28;20215;-75
2022/03/03 10:42:44;;;;;;;26.05;18.00;;;5.60;40.10;;;;;;5048326;28;20213;-74
2022/03/03 10:45:15;;;;;;;24.23;16.85;;;5.70;40.00;;;;;;5041201;28;20284;-74
2022/03/03 10:47:45;;;;;;;27.05;18.23;;;5.70;39.50;;;;;;5040363;28;20244;-74
2022/03/03 10:50:12;;;;;;;28.17;19.92;;;5.50;40.20;;;;;;5045709;28;20411;-73
2022/03/03 10:52:40;;;;;;;29.38;17.50;;;5.30;40.70;;;;;;5047069;28;20209;-73
2022/03/03 10:55:12;;;;;;;27.35;19.92;;;5.70;40.50;;;;;;5054335;28;20197;-73
2022/03/03 10:57:42;;;;;;;29.20;19.55;;;5.90;38.90;;;;;;5052506;28;20224;-73
2022/03/03 11:00:14;;;;;;;23.27;16.95;;;6.20;38.60;;;;;;5049395;28;20221;-74
2022/03/03 11:02:42;;;;;;;26.52;18.75;;;6.40;37.70;;;;;;5049314;28;20229;-74
2022/03/03 11:05:11;;;;;;;26.52;19.73;;;6.60;37.50;;;;;;5049770;28;20217;-73
2022/03/03 11:07:41;;;;;;;29.55;20.63;;;6.80;37.70;;;;;;5048766;28;20269;-74
2022/03/03 11:10:10;;;;;;;31.42;19.15;;;6.90;37.00;;;;;;5047412;28;20202;-73
2022/03/03 11:12:38;;;;;;;25.52;18.45;;;7.10;36.70;;;;;;5045002;28;20209;-74
2022/03/03 11:15:05;;;;;;;26.48;18.05;;;7.20;36.30;;;;;;5043361;28;20226;-75
2022/03/03 11:17:34;;;;;;;24.27;17.70;;;7.40;35.60;;;;;;5035625;28;20301;-74
2022/03/03 11:20:02;;;;;;;28.88;19.23;;;7.60;35.00;;;;;;5040931;28;20200;-75
2022/03/03 11:22:31;;;;;;;28.65;19.05;;;7.70;34.40;;;;;;5049663;28;20240;-73
2022/03/03 11:24:59;;;;;;;26.48;19.00;;;7.80;34.20;;;;;;5054450;28;20199;-75
2022/03/03 11:27:33;;;;;;;26.10;18.67;;;7.60;34.00;;;;;;5050783;28;20279;-74
2022/03/03 11:30:19;;;;;;;26.90;19.50;;;7.40;33.50;;;;;;5067013;28;20228;-74
2022/03/03 11:33:29;;;;;;;25.17;17.52;;;7.60;32.70;;;;;;5059447;28;20240;-73
2022/03/03 11:35:59;;;;;;;28.45;18.98;;;7.70;32.60;;;;;;5039017;28;20223;-73
2022/03/03 11:38:28;;;;;;;24.55;18.88;;;7.70;31.40;;;;;;5037993;28;20213;-73
2022/03/03 11:40:57;;;;;;;25.85;18.33;;;7.70;31.60;;;;;;5034080;28;20733;-74
2022/03/03 11:43:24;;;;;;;29.00;18.15;;;7.80;31.00;;;;;;5051153;28;20210;-74
2022/03/03 11:45:53;;;;;;;26.08;17.30;;;7.70;30.90;;;;;;5057590;28;20199;-74
2022/03/03 11:48:23;;;;;;;27.45;18.52;;;7.70;31.00;;;;;;5058070;28;20228;-74
2022/03/03 11:50:51;;;;;;;24.02;17.70;;;7.90;31.40;;;;;;5055956;28;20222;-74
2022/03/03 11:53:25;;;;;;;26.88;17.65;;;8.20;31.00;;;;;;5040272;28;20333;-73
2022/03/03 11:56:01;;;;;;;26.58;18.88;;;8.40;30.40;;;;;;5041248;28;20197;-74
2022/03/03 11:58:31;;;;;;;22.55;18.27;;;8.70;29.60;;;;;;5039372;28;20210;-77
2022/03/03 12:01:08;;;;;;;30.80;19.88;;;8.90;29.70;;;;;;5038020;28;20229;-75
2022/03/03 12:04:00;;;;;;;28.08;18.80;;;9.00;29.80;;;;;;5039246;28;20210;-75
2022/03/03 12:06:37;;;;;;;26.98;19.00;;;9.10;29.80;;;;;;5038378;28;20663;-74
2022/03/03 12:09:20;;;;;;;28.88;17.42;;;8.80;29.60;;;;;;5034236;28;20206;-74
2022/03/03 12:11:48;;;;;;;28.83;19.20;;;9.00;29.80;;;;;;5032415;28;20306;-76
2022/03/03 12:14:33;;;;;;;25.27;18.65;;;9.20;29.90;;;;;;5037454;28;20333;-74
2022/03/03 12:17:40;;;;;;;26.15;18.00;;;9.20;29.10;;;;;;5051703;28;20629;-75
2022/03/03 12:20:38;;;;;;;30.92;18.70;;;9.30;28.90;;;;;;5027976;28;20273;-76
2022/03/03 12:23:07;;;;;;;25.77;18.60;;;9.10;29.30;;;;;;5037132;28;20195;-75
2022/03/03 12:25:55;;;;;;;26.48;19.95;;;9.20;28.80;;;;;;5035663;28;20207;-77
2022/03/03 12:28:27;;;;;;;26.88;18.98;;;9.30;30.00;;;;;;5046854;28;20250;-75
2022/03/03 12:30:55;;;;;;;32.90;19.55;;;9.10;28.90;;;;;;5044131;28;20735;-74
2022/03/03 12:33:28;;;;;;;28.65;19.50;;;8.90;29.70;;;;;;5048226;28;20663;-74
2022/03/03 12:36:01;;;;;;;27.77;18.95;;;8.90;29.10;;;;;;5055218;28;20539;-75
2022/03/03 12:38:28;;;;;;;34.38;19.75;;;9.10;28.50;;;;;;5044509;28;20213;-73
2022/03/03 12:40:55;;;;;;;26.85;19.33;;;9.20;28.30;;;;;;5053027;28;20272;-74